Time;durP1;ratioP1;P1;durP2;ratioP2;P2;SDS_P1;SDS_P2;PMS_P1;PMS_P2;Temp;Humidity;BMP_temperature;BMP_pressure;BME280_temperature;BME280_humidity;BME280_pressure;Samples;Min_cycle;Max_cycle;Signal;HPM_P1;HPM_P2
2021/10/04 00:01:45;;;;;;;12.23;3.28;;;11.30;96.70;;;;;;4944119;29;20620;-62
2021/10/04 00:04:12;;;;;;;12.85;3.45;;;11.20;96.80;;;;;;4943545;28;20062;-61
2021/10/04 00:06:39;;;;;;;14.55;2.70;;;11.20;96.90;;;;;;4945075;29;20586;-62
2021/10/04 00:09:06;;;;;;;13.93;2.60;;;11.20;96.90;;;;;;4945048;29;20105;-62
2021/10/04 00:11:32;;;;;;;12.65;2.60;;;11.20;97.00;;;;;;4945080;28;20110;-62
2021/10/04 00:13:59;;;;;;;15.05;3.97;;;11.20;97.30;;;;;;4942975;28;20134;-62
2021/10/04 00:16:26;;;;;;;18.45;2.65;;;11.20;97.30;;;;;;4942330;28;20157;-62
2021/10/04 00:18:53;;;;;;;17.95;3.83;;;11.20;97.20;;;;;;4941716;28;20388;-62
2021/10/04 00:21:19;;;;;;;20.85;4.05;;;11.20;97.30;;;;;;4943452;28;20095;-62
2021/10/04 00:23:46;;;;;;;10.05;3.60;;;11.30;97.20;;;;;;4944067;28;20078;-62
2021/10/04 00:26:13;;;;;;;17.52;3.03;;;11.30;97.00;;;;;;4944303;28;20504;-62
2021/10/04 00:28:39;;;;;;;20.13;4.85;;;11.30;97.10;;;;;;4943334;29;20142;-62
2021/10/04 00:31:06;;;;;;;16.60;3.08;;;11.30;97.00;;;;;;4943040;28;20055;-62
2021/10/04 00:33:33;;;;;;;16.67;4.65;;;11.30;97.20;;;;;;4940933;29;20137;-62
2021/10/04 00:36:00;;;;;;;12.88;2.97;;;11.40;97.00;;;;;;4942236;28;20709;-62
2021/10/04 00:38:26;;;;;;;19.02;3.38;;;11.40;96.80;;;;;;4939828;29;20138;-62
2021/10/04 00:40:53;;;;;;;18.08;2.70;;;11.40;96.70;;;;;;4942571;29;20147;-62
2021/10/04 00:43:21;;;;;;;18.83;3.30;;;11.50;96.70;;;;;;4942205;28;20113;-62
2021/10/04 00:45:48;;;;;;;13.18;3.15;;;11.50;96.60;;;;;;4943243;28;20078;-62
2021/10/04 00:48:15;;;;;;;20.08;3.65;;;11.50;96.60;;;;;;4941847;28;20134;-62
2021/10/04 00:50:43;;;;;;;19.75;3.78;;;11.50;96.50;;;;;;4942188;29;20150;-62
2021/10/04 00:53:10;;;;;;;14.63;3.38;;;11.60;96.50;;;;;;4942910;29;20641;-62
2021/10/04 00:55:38;;;;;;;12.95;3.22;;;11.60;96.50;;;;;;4958936;28;20047;-62
2021/10/04 00:58:05;;;;;;;12.80;3.97;;;11.60;96.50;;;;;;4942856;28;20365;-62
2021/10/04 01:00:31;;;;;;;18.30;3.22;;;11.60;96.30;;;;;;4941979;29;20051;-62
2021/10/04 01:02:59;;;;;;;21.27;2.88;;;11.70;96.40;;;;;;4943058;28;20511;-62
2021/10/04 01:05:31;;;;;;;10.93;3.10;;;11.80;96.30;;;;;;4943793;28;20318;-62
2021/10/04 01:07:57;;;;;;;13.20;3.33;;;11.90;96.10;;;;;;4942682;28;20089;-63
2021/10/04 01:10:24;;;;;;;12.43;3.05;;;11.90;96.00;;;;;;4943775;28;20567;-63
2021/10/04 01:12:51;;;;;;;11.70;3.28;;;12.00;95.80;;;;;;4944434;28;20191;-62
2021/10/04 01:15:19;;;;;;;16.08;3.90;;;12.10;95.70;;;;;;4942028;28;20138;-62
2021/10/04 01:17:46;;;;;;;17.90;3.42;;;12.20;95.50;;;;;;4941412;28;20610;-62
2021/10/04 01:20:17;;;;;;;19.65;3.38;;;12.20;95.30;;;;;;4942038;28;20174;-62
2021/10/04 01:22:44;;;;;;;12.45;3.42;;;12.30;95.20;;;;;;4944331;28;20047;-62
2021/10/04 01:25:11;;;;;;;11.68;3.35;;;12.30;95.00;;;;;;4947044;28;20289;-62
2021/10/04 01:27:40;;;;;;;15.23;3.35;;;12.30;94.90;;;;;;4962807;28;20130;-62
2021/10/04 01:30:07;;;;;;;13.73;3.35;;;12.30;94.90;;;;;;4946616;28;20062;-62
2021/10/04 01:32:35;;;;;;;13.20;2.72;;;12.30;94.80;;;;;;4960959;28;20083;-62
2021/10/04 01:35:02;;;;;;;9.73;2.35;;;12.30;94.90;;;;;;4950082;28;20093;-62
2021/10/04 01:37:29;;;;;;;10.70;3.30;;;12.30;94.90;;;;;;4948418;28;20624;-62
2021/10/04 01:39:56;;;;;;;16.23;4.00;;;12.30;95.00;;;;;;4949443;29;20461;-62
2021/10/04 01:42:22;;;;;;;8.82;2.38;;;12.30;95.00;;;;;;4950119;29;20051;-62
2021/10/04 01:44:49;;;;;;;14.13;3.30;;;12.40;95.20;;;;;;4947827;28;20396;-62
2021/10/04 01:47:16;;;;;;;11.88;2.63;;;12.40;95.00;;;;;;4947302;28;20090;-63
2021/10/04 01:49:45;;;;;;;13.65;2.90;;;12.40;95.00;;;;;;4948507;28;20130;-62
2021/10/04 01:52:12;;;;;;;10.38;2.75;;;12.40;94.90;;;;;;4948496;28;20083;-62
2021/10/04 01:54:40;;;;;;;11.95;3.50;;;12.40;95.00;;;;;;4947688;29;20126;-62
2021/10/04 01:57:07;;;;;;;11.10;3.45;;;12.40;94.80;;;;;;4947529;29;20082;-62
2021/10/04 01:59:33;;;;;;;13.10;2.63;;;12.40;94.70;;;;;;4945832;29;20086;-62
2021/10/04 02:02:00;;;;;;;15.55;3.47;;;12.40;94.70;;;;;;4947113;29;20059;-62
2021/10/04 02:04:27;;;;;;;15.93;3.45;;;12.40;94.60;;;;;;4946545;29;20392;-62
2021/10/04 02:06:54;;;;;;;13.20;3.10;;;12.40;94.70;;;;;;4947261;28;20086;-62
2021/10/04 02:09:21;;;;;;;11.50;2.83;;;12.30;94.70;;;;;;4947787;29;20138;-62
2021/10/04 02:11:47;;;;;;;14.90;3.42;;;12.30;94.70;;;;;;4948962;28;20712;-62
2021/10/04 02:14:15;;;;;;;14.23;3.60;;;12.20;94.90;;;;;;4947400;28;20090;-62
2021/10/04 02:16:41;;;;;;;21.35;3.53;;;12.20;95.00;;;;;;4948281;28;20138;-62
2021/10/04 02:19:08;;;;;;;15.35;3.17;;;12.10;95.00;;;;;;4948109;29;20440;-62
2021/10/04 02:21:35;;;;;;;13.23;2.80;;;12.00;95.00;;;;;;4948515;28;20078;-62
2021/10/04 02:24:02;;;;;;;15.25;3.72;;;12.00;95.20;;;;;;4948647;28;20097;-62
2021/10/04 02:26:29;;;;;;;15.93;3.75;;;11.90;95.30;;;;;;4947680;29;20078;-62
2021/10/04 02:28:55;;;;;;;15.18;3.10;;;11.80;95.40;;;;;;4947397;29;20090;-62
2021/10/04 02:31:22;;;;;;;11.38;2.78;;;11.80;95.50;;;;;;4947687;28;20123;-62
2021/10/04 02:33:49;;;;;;;11.15;2.95;;;11.70;95.80;;;;;;4946176;28;20114;-62
2021/10/04 02:36:21;;;;;;;13.90;3.17;;;11.70;95.70;;;;;;4948049;28;20130;-62
2021/10/04 02:38:48;;;;;;;16.97;2.30;;;11.70;95.80;;;;;;4947630;28;20135;-62
2021/10/04 02:41:15;;;;;;;16.05;4.07;;;11.60;96.10;;;;;;4946678;28;20293;-62
2021/10/04 02:43:42;;;;;;;20.42;2.90;;;11.50;96.00;;;;;;4945177;29;20079;-62
2021/10/04 02:46:09;;;;;;;11.68;2.63;;;11.50;96.10;;;;;;4946968;28;20059;-62
2021/10/04 02:48:36;;;;;;;21.55;3.47;;;11.40;96.10;;;;;;4946062;29;20062;-62
2021/10/04 02:51:03;;;;;;;13.77;2.85;;;11.40;96.30;;;;;;4946755;29;20058;-62
2021/10/04 02:53:29;;;;;;;12.95;2.88;;;11.30;96.50;;;;;;4947914;28;20153;-62
2021/10/04 02:55:56;;;;;;;18.30;2.90;;;11.20;96.60;;;;;;4947687;28;20085;-62
2021/10/04 02:58:23;;;;;;;9.05;2.38;;;11.20;97.10;;;;;;4947353;29;20138;-62
2021/10/04 03:00:49;;;;;;;16.55;2.97;;;11.10;96.80;;;;;;4947533;28;20098;-62
2021/10/04 03:03:16;;;;;;;9.20;2.55;;;11.10;97.00;;;;;;4946334;28;20510;-62
2021/10/04 03:05:43;;;;;;;13.15;2.92;;;11.00;97.10;;;;;;4947657;28;20111;-62
2021/10/04 03:08:10;;;;;;;12.10;2.55;;;11.00;97.30;;;;;;4947348;28;20079;-62
2021/10/04 03:10:36;;;;;;;19.45;3.05;;;11.00;97.30;;;;;;4946675;28;20220;-62
2021/10/04 03:13:03;;;;;;;13.70;3.17;;;11.10;97.40;;;;;;4947265;28;20090;-62
2021/10/04 03:15:30;;;;;;;6.80;2.80;;;11.10;97.60;;;;;;4946712;28;20082;-62
2021/10/04 03:17:57;;;;;;;15.93;3.05;;;11.20;97.40;;;;;;4947395;28;20407;-62
2021/10/04 03:20:23;;;;;;;14.80;2.85;;;11.20;97.20;;;;;;4946323;29;20511;-62
2021/10/04 03:22:50;;;;;;;19.45;3.50;;;11.30;97.20;;;;;;4947794;28;20110;-62
2021/10/04 03:25:17;;;;;;;14.52;3.58;;;11.40;97.20;;;;;;4947107;28;20555;-62
2021/10/04 03:27:44;;;;;;;10.63;2.90;;;11.40;97.30;;;;;;4947823;29;20055;-67
2021/10/04 03:30:10;;;;;;;13.52;2.85;;;11.40;97.50;;;;;;4945169;28;20051;-64
2021/10/04 03:32:37;;;;;;;17.35;3.25;;;11.50;98.00;;;;;;4945774;29;20130;-64
2021/10/04 03:35:05;;;;;;;11.57;2.97;;;11.50;98.40;;;;;;4946305;28;20069;-64
2021/10/04 03:37:32;;;;;;;16.17;3.08;;;11.60;98.20;;;;;;4947379;28;20082;-63
2021/10/04 03:39:58;;;;;;;18.38;4.63;;;11.60;97.90;;;;;;4946415;29;20141;-61
2021/10/04 03:42:25;;;;;;;9.77;2.60;;;11.70;97.50;;;;;;4946407;29;20130;-61
2021/10/04 03:44:52;;;;;;;10.68;2.50;;;11.80;97.40;;;;;;4959107;28;20065;-62
2021/10/04 03:47:19;;;;;;;17.08;3.53;;;11.90;97.30;;;;;;4944494;29;20594;-64
2021/10/04 03:49:45;;;;;;;14.00;2.13;;;11.90;97.20;;;;;;4944532;29;20447;-66
2021/10/04 03:52:12;;;;;;;12.73;2.70;;;11.80;97.50;;;;;;4948048;28;20078;-66
2021/10/04 03:54:39;;;;;;;10.05;2.22;;;11.80;97.60;;;;;;4948499;28;20083;-65
2021/10/04 03:57:06;;;;;;;9.95;2.25;;;11.70;96.30;;;;;;4948916;28;20545;-65
2021/10/04 03:59:33;;;;;;;8.50;1.98;;;11.60;96.80;;;;;;4947013;28;20055;-65
2021/10/04 04:02:00;;;;;;;7.25;1.90;;;11.60;96.50;;;;;;4946770;28;20417;-65
2021/10/04 04:04:27;;;;;;;6.40;1.77;;;11.50;97.20;;;;;;4946020;29;20134;-64
2021/10/04 04:06:54;;;;;;;8.65;2.30;;;11.50;96.80;;;;;;4948017;28;20109;-65
2021/10/04 04:09:20;;;;;;;10.25;1.85;;;11.40;96.60;;;;;;4947723;29;20471;-64
2021/10/04 04:11:47;;;;;;;12.63;4.28;;;11.40;96.80;;;;;;4949338;29;20130;-64
2021/10/04 04:14:14;;;;;;;8.48;1.90;;;11.30;96.60;;;;;;4946785;28;20098;-64
2021/10/04 04:16:40;;;;;;;8.43;1.65;;;11.30;96.80;;;;;;4948171;28;20090;-64
2021/10/04 04:19:07;;;;;;;6.93;1.83;;;11.20;96.80;;;;;;4946030;29;20066;-64
2021/10/04 04:21:34;;;;;;;10.32;2.13;;;11.20;96.20;;;;;;4948549;29;20134;-64
2021/10/04 04:24:10;;;;;;;6.13;1.40;;;11.20;96.10;;;;;;4947674;28;20118;-63
2021/10/04 04:26:37;;;;;;;4.38;1.23;;;11.10;95.60;;;;;;4948393;28;20655;-63
2021/10/04 04:29:04;;;;;;;4.10;1.63;;;11.20;94.70;;;;;;4945666;29;20093;-65
2021/10/04 04:31:30;;;;;;;5.97;1.08;;;11.10;95.50;;;;;;4947144;28;20518;-65
2021/10/04 04:33:57;;;;;;;3.33;1.00;;;11.10;95.10;;;;;;4947931;28;20043;-65
2021/10/04 04:36:24;;;;;;;4.72;1.30;;;11.10;95.20;;;;;;4948824;28;20479;-65
2021/10/04 04:38:51;;;;;;;3.78;1.15;;;11.00;95.10;;;;;;4946832;29;20075;-64
2021/10/04 04:41:18;;;;;;;5.45;1.00;;;11.00;95.90;;;;;;4948371;28;20134;-64
2021/10/04 04:43:45;;;;;;;4.45;0.85;;;11.00;96.30;;;;;;4946747;28;20043;-64
2021/10/04 04:46:12;;;;;;;1.30;0.65;;;10.90;96.40;;;;;;4960293;28;20515;-63
2021/10/04 04:48:39;;;;;;;2.70;0.93;;;10.90;96.40;;;;;;4943742;28;20085;-64
2021/10/04 04:51:06;;;;;;;3.85;1.38;;;10.90;96.80;;;;;;4944050;29;20142;-64
2021/10/04 04:53:32;;;;;;;2.88;1.20;;;10.80;97.00;;;;;;4944684;29;20146;-64
2021/10/04 04:55:59;;;;;;;2.90;0.80;;;10.90;96.70;;;;;;4943515;28;20058;-64
2021/10/04 04:58:26;;;;;;;5.13;1.17;;;10.90;97.00;;;;;;4943025;29;20117;-63
2021/10/04 05:00:53;;;;;;;4.65;0.98;;;10.90;97.00;;;;;;4945598;28;20137;-63
2021/10/04 05:03:20;;;;;;;3.78;0.80;;;10.80;97.10;;;;;;4943325;28;20055;-64
2021/10/04 05:05:46;;;;;;;6.93;1.25;;;10.90;97.10;;;;;;4944420;28;20629;-63
2021/10/04 05:08:13;;;;;;;7.55;3.17;;;10.80;97.50;;;;;;4942865;29;20078;-63
2021/10/04 05:10:40;;;;;;;8.13;2.13;;;10.90;98.10;;;;;;4941126;28;20071;-64
2021/10/04 05:13:07;;;;;;;5.90;1.55;;;10.90;97.70;;;;;;4941015;29;20082;-65
2021/10/04 05:15:35;;;;;;;1.67;1.00;;;10.90;97.70;;;;;;4942735;28;20047;-66
2021/10/04 05:18:02;;;;;;;5.63;1.10;;;10.90;97.70;;;;;;4942476;28;20090;-66
2021/10/04 05:20:29;;;;;;;5.75;1.17;;;10.90;98.10;;;;;;4942176;29;20141;-66
2021/10/04 05:22:56;;;;;;;6.15;1.25;;;10.90;98.20;;;;;;4942407;28;20206;-66
2021/10/04 05:25:22;;;;;;;4.10;1.55;;;10.90;98.40;;;;;;4941977;28;21327;-66
2021/10/04 05:27:49;;;;;;;6.20;1.40;;;10.90;98.60;;;;;;4939262;29;20114;-65
2021/10/04 05:30:16;;;;;;;5.97;1.30;;;10.80;98.20;;;;;;4935275;28;20071;-66
2021/10/04 05:32:43;;;;;;;7.80;1.23;;;10.80;98.20;;;;;;4938222;28;20057;-65
2021/10/04 05:35:11;;;;;;;3.58;1.08;;;10.80;98.40;;;;;;4938396;29;20141;-66
2021/10/04 05:37:39;;;;;;;4.55;1.00;;;10.80;98.50;;;;;;4938875;28;20503;-65
2021/10/04 05:40:06;;;;;;;10.50;2.63;;;10.80;98.50;;;;;;4938850;28;20618;-65
2021/10/04 05:42:33;;;;;;;4.90;1.23;;;10.80;98.50;;;;;;4941000;28;20051;-65
2021/10/04 05:45:00;;;;;;;5.70;1.00;;;10.80;98.80;;;;;;4939570;28;20095;-65
2021/10/04 05:47:27;;;;;;;1.88;0.82;;;10.80;98.50;;;;;;4941385;28;20098;-64
2021/10/04 05:49:54;;;;;;;6.35;1.00;;;10.80;98.20;;;;;;4939812;29;20130;-65
2021/10/04 05:52:21;;;;;;;5.30;1.20;;;10.80;98.00;;;;;;4938171;29;20086;-65
2021/10/04 05:54:47;;;;;;;4.03;1.13;;;10.80;98.00;;;;;;4954004;28;20632;-64
2021/10/04 05:57:14;;;;;;;10.30;1.90;;;10.70;98.00;;;;;;4938502;28;20090;-64
2021/10/04 05:59:41;;;;;;;4.57;1.13;;;10.70;97.90;;;;;;4917989;28;20604;-64
2021/10/04 06:02:08;;;;;;;2.50;0.75;;;10.60;97.70;;;;;;5004170;28;20125;-65
2021/10/04 06:04:35;;;;;;;5.28;1.00;;;10.60;97.80;;;;;;4957100;28;20069;-64
2021/10/04 06:07:02;;;;;;;7.43;2.40;;;10.60;98.10;;;;;;4976031;28;20082;-64
2021/10/04 06:09:29;;;;;;;4.55;1.20;;;10.60;98.30;;;;;;4980282;28;20054;-63
2021/10/04 06:11:55;;;;;;;5.55;1.05;;;10.60;98.30;;;;;;4981321;28;20134;-64
2021/10/04 06:14:23;;;;;;;3.17;1.75;;;10.60;98.60;;;;;;4979727;28;20093;-63
2021/10/04 06:16:50;;;;;;;5.22;1.30;;;10.60;98.60;;;;;;4977652;28;20401;-63
2021/10/04 06:19:16;;;;;;;5.10;1.92;;;10.60;98.50;;;;;;4979525;28;20133;-63
2021/10/04 06:21:43;;;;;;;5.07;1.35;;;10.60;98.60;;;;;;4982584;28;20161;-63
2021/10/04 06:24:10;;;;;;;3.28;0.70;;;10.70;98.80;;;;;;4982134;28;20342;-64
2021/10/04 06:26:37;;;;;;;4.22;1.00;;;10.70;98.50;;;;;;4982785;28;20092;-64
2021/10/04 06:29:03;;;;;;;3.65;1.20;;;10.80;98.30;;;;;;4981646;28;20062;-63
2021/10/04 06:31:30;;;;;;;6.13;1.20;;;10.80;98.20;;;;;;4982397;28;20093;-63
2021/10/04 06:33:57;;;;;;;3.17;1.00;;;10.80;98.00;;;;;;4980220;28;20565;-64
2021/10/04 06:36:24;;;;;;;5.75;1.23;;;10.80;97.80;;;;;;4982626;28;20050;-64
2021/10/04 06:38:50;;;;;;;4.18;1.02;;;10.80;97.90;;;;;;4981855;28;20094;-64
2021/10/04 06:41:17;;;;;;;3.15;1.13;;;10.70;98.00;;;;;;4982295;28;20161;-63
2021/10/04 06:43:44;;;;;;;4.25;1.10;;;10.70;97.90;;;;;;4980368;28;20128;-63
2021/10/04 06:46:11;;;;;;;3.60;1.00;;;10.70;97.90;;;;;;4981489;28;20220;-64
2021/10/04 06:48:38;;;;;;;7.10;1.58;;;10.70;98.10;;;;;;4962786;28;20042;-63
2021/10/04 06:51:06;;;;;;;5.13;1.27;;;10.60;98.10;;;;;;4980800;28;20416;-64
2021/10/04 06:53:33;;;;;;;2.38;0.98;;;10.60;97.90;;;;;;4978661;28;20089;-63
2021/10/04 06:56:00;;;;;;;3.88;1.23;;;10.60;97.90;;;;;;4971889;28;20121;-63
2021/10/04 06:58:27;;;;;;;2.83;1.20;;;10.70;98.00;;;;;;4960166;28;20482;-63
2021/10/04 07:00:53;;;;;;;4.05;0.90;;;10.70;98.20;;;;;;4980439;28;20136;-63
2021/10/04 07:03:21;;;;;;;4.05;1.27;;;10.60;97.70;;;;;;4978067;28;20058;-63
2021/10/04 07:05:49;;;;;;;4.68;0.90;;;10.70;98.00;;;;;;4976534;28;20605;-63
2021/10/04 07:08:17;;;;;;;3.92;0.82;;;10.60;97.90;;;;;;4979625;28;20089;-63
2021/10/04 07:10:44;;;;;;;3.38;1.20;;;10.60;97.90;;;;;;4962149;28;20234;-63
2021/10/04 07:13:11;;;;;;;3.67;1.10;;;10.60;98.10;;;;;;4979728;28;20125;-62
2021/10/04 07:15:38;;;;;;;3.75;1.00;;;10.60;97.80;;;;;;4980541;28;20185;-63
2021/10/04 07:18:05;;;;;;;3.67;0.90;;;10.60;98.00;;;;;;4976060;28;20061;-63
2021/10/04 07:20:31;;;;;;;5.68;1.13;;;10.60;97.90;;;;;;4976060;28;20109;-63
2021/10/04 07:22:59;;;;;;;2.75;0.90;;;10.70;98.00;;;;;;4972853;28;20054;-63
2021/10/04 07:25:26;;;;;;;5.50;1.10;;;10.70;97.90;;;;;;4976620;28;20564;-62
2021/10/04 07:27:53;;;;;;;3.45;1.42;;;10.70;97.70;;;;;;4980021;28;20101;-62
2021/10/04 07:30:20;;;;;;;4.63;1.02;;;10.80;97.80;;;;;;4979586;28;20050;-63
2021/10/04 07:32:47;;;;;;;1.85;1.10;;;10.80;97.70;;;;;;4970826;28;20078;-63
2021/10/04 07:35:13;;;;;;;3.88;1.20;;;10.80;97.70;;;;;;4970736;28;20055;-63
2021/10/04 07:37:40;;;;;;;2.88;0.82;;;10.90;98.00;;;;;;4975646;28;20448;-63
2021/10/04 07:40:08;;;;;;;3.00;1.27;;;10.90;97.60;;;;;;4979009;28;20703;-63
2021/10/04 07:42:35;;;;;;;3.60;1.00;;;10.90;97.60;;;;;;5010652;28;20077;-62
2021/10/04 07:45:01;;;;;;;4.50;1.58;;;11.00;97.30;;;;;;4977102;28;20096;-62
2021/10/04 07:47:28;;;;;;;2.08;0.93;;;11.00;97.40;;;;;;4974069;28;20133;-62
2021/10/04 07:49:55;;;;;;;2.13;1.00;;;11.00;97.50;;;;;;4978284;28;20277;-62
2021/10/04 07:52:22;;;;;;;3.20;0.75;;;11.00;97.20;;;;;;4969932;28;20145;-63
2021/10/04 07:54:48;;;;;;;4.00;1.10;;;11.10;97.40;;;;;;4965515;28;20078;-62
2021/10/04 07:57:15;;;;;;;5.93;1.05;;;11.20;97.20;;;;;;4961580;28;20133;-62
2021/10/04 07:59:42;;;;;;;3.60;2.08;;;11.20;97.10;;;;;;4969963;28;20046;-62
2021/10/04 08:02:09;;;;;;;8.50;2.45;;;11.30;97.20;;;;;;5009447;28;20161;-62
2021/10/04 08:04:36;;;;;;;6.30;1.48;;;11.40;97.10;;;;;;4976360;28;20104;-62
2021/10/04 08:07:03;;;;;;;4.57;1.40;;;11.40;97.20;;;;;;5010787;28;20086;-62
2021/10/04 08:09:30;;;;;;;3.92;0.90;;;11.50;97.60;;;;;;4979079;28;20057;-62
2021/10/04 08:11:57;;;;;;;6.40;1.25;;;11.60;97.40;;;;;;4980147;28;20140;-62
2021/10/04 08:14:24;;;;;;;3.65;1.58;;;11.60;97.20;;;;;;4974739;28;20074;-62
2021/10/04 08:16:50;;;;;;;5.15;1.15;;;11.70;97.10;;;;;;4979185;28;20089;-62
2021/10/04 08:19:17;;;;;;;5.10;1.20;;;11.70;97.40;;;;;;4979338;28;20849;-62
2021/10/04 08:21:44;;;;;;;10.02;2.90;;;11.80;97.20;;;;;;4979177;28;20046;-62
2021/10/04 08:24:11;;;;;;;4.10;1.00;;;11.90;96.80;;;;;;4975978;28;20134;-62
2021/10/04 08:26:38;;;;;;;4.68;1.00;;;11.90;96.60;;;;;;4976520;28;20137;-62
2021/10/04 08:29:04;;;;;;;13.88;1.75;;;12.00;96.80;;;;;;4976152;28;20135;-62
2021/10/04 08:31:32;;;;;;;7.20;1.55;;;12.00;96.80;;;;;;4977944;28;20460;-62
2021/10/04 08:34:01;;;;;;;4.80;1.58;;;12.10;96.70;;;;;;4975829;28;20054;-62
2021/10/04 08:36:28;;;;;;;5.40;1.15;;;12.20;96.90;;;;;;4978361;28;20414;-62
2021/10/04 08:38:55;;;;;;;8.02;1.20;;;12.20;96.70;;;;;;4991709;28;20209;-62
2021/10/04 08:41:22;;;;;;;9.82;1.60;;;12.20;96.40;;;;;;4968103;28;20090;-62
2021/10/04 08:43:50;;;;;;;4.28;2.28;;;12.30;96.60;;;;;;4996625;28;20133;-62
2021/10/04 08:46:17;;;;;;;7.85;1.50;;;12.40;96.40;;;;;;4958889;28;20149;-62
2021/10/04 08:48:45;;;;;;;6.38;1.48;;;12.40;96.60;;;;;;4973048;28;20054;-62
2021/10/04 08:51:12;;;;;;;8.95;2.97;;;12.40;96.70;;;;;;4967719;28;20121;-62
2021/10/04 08:53:39;;;;;;;7.85;1.55;;;12.50;96.00;;;;;;4973306;28;21119;-63
2021/10/04 08:56:06;;;;;;;7.72;1.40;;;12.60;96.20;;;;;;4978220;28;20474;-62
2021/10/04 08:58:33;;;;;;;9.00;2.03;;;12.80;95.60;;;;;;4970780;28;20496;-63
2021/10/04 09:00:59;;;;;;;7.25;1.98;;;12.80;95.90;;;;;;4976940;28;20145;-62
2021/10/04 09:03:27;;;;;;;7.22;1.83;;;12.90;96.10;;;;;;5007371;28;20050;-62
2021/10/04 09:05:57;;;;;;;5.20;1.40;;;13.00;95.40;;;;;;4978289;28;20108;-63
2021/10/04 09:08:24;;;;;;;6.90;2.00;;;13.10;95.20;;;;;;4978989;28;20104;-65
2021/10/04 09:10:55;;;;;;;6.78;1.42;;;13.20;95.30;;;;;;4978955;28;20104;-65
2021/10/04 09:13:22;;;;;;;7.10;2.55;;;13.20;95.10;;;;;;4978452;28;20088;-61
2021/10/04 09:15:49;;;;;;;8.88;1.48;;;13.30;94.60;;;;;;4977314;28;20053;-59
2021/10/04 09:18:27;;;;;;;7.05;1.45;;;13.30;94.60;;;;;;4968899;28;20809;-60
2021/10/04 09:20:57;;;;;;;5.30;2.08;;;13.40;93.60;;;;;;4966457;28;20058;-61
2021/10/04 09:23:32;;;;;;;5.75;1.40;;;13.50;94.60;;;;;;4974101;28;20209;-61
2021/10/04 09:26:03;;;;;;;8.20;1.73;;;13.60;93.70;;;;;;4959573;28;20106;-61
2021/10/04 09:28:38;;;;;;;9.48;1.83;;;13.60;93.50;;;;;;4968230;28;20201;-60
2021/10/04 09:31:18;;;;;;;4.45;1.40;;;13.70;93.70;;;;;;4974484;28;20062;-60
2021/10/04 09:34:06;;;;;;;6.35;1.65;;;13.80;92.60;;;;;;4981550;28;20048;-61
2021/10/04 09:36:33;;;;;;;4.70;1.20;;;13.80;93.10;;;;;;4984703;28;20054;-61
2021/10/04 09:39:12;;;;;;;6.40;1.40;;;13.90;93.10;;;;;;4984066;28;20150;-61
2021/10/04 09:42:01;;;;;;;5.38;1.50;;;14.00;92.50;;;;;;4979697;28;20046;-61
2021/10/04 09:44:56;;;;;;;7.38;1.63;;;14.10;92.10;;;;;;4974788;28;20094;-60
2021/10/04 09:47:27;;;;;;;7.68;1.30;;;14.20;92.10;;;;;;4986297;28;20173;-61
2021/10/04 09:50:03;;;;;;;7.63;1.85;;;14.30;91.70;;;;;;4983359;28;20353;-61
2021/10/04 09:52:49;;;;;;;6.93;1.65;;;14.30;91.80;;;;;;4973593;28;20125;-60
2021/10/04 09:55:18;;;;;;;10.13;1.58;;;14.40;90.60;;;;;;4975486;28;20073;-61
2021/10/04 09:58:02;;;;;;;4.28;1.02;;;14.50;90.60;;;;;;4972770;28;20524;-61
2021/10/04 10:00:35;;;;;;;3.78;1.40;;;14.60;87.40;;;;;;4985594;28;20110;-61
2021/10/04 10:03:03;;;;;;;;;;;14.60;86.90;;;;;;4986374;28;20077;-61
2021/10/04 10:05:32;;;;;;;3.65;1.33;;;14.60;87.50;;;;;;4985264;28;20392;-61
2021/10/04 10:07:59;;;;;;;7.55;1.77;;;14.70;85.60;;;;;;4978258;28;20069;-61
2021/10/04 10:10:35;;;;;;;6.28;1.50;;;14.80;88.30;;;;;;4988112;28;20061;-61
2021/10/04 10:13:02;;;;;;;3.00;1.20;;;14.90;87.00;;;;;;4983839;28;20120;-61
2021/10/04 10:15:29;;;;;;;5.05;1.23;;;15.00;85.30;;;;;;4976883;28;20651;-61
2021/10/04 10:18:11;;;;;;;4.43;1.50;;;15.00;84.20;;;;;;4983774;28;20078;-61
2021/10/04 10:20:38;;;;;;;4.30;0.90;;;15.00;85.60;;;;;;4977518;28;20489;-61
2021/10/04 10:23:04;;;;;;;3.97;1.80;;;15.10;83.70;;;;;;4981399;28;20653;-61
2021/10/04 10:25:42;;;;;;;7.80;1.65;;;15.10;84.10;;;;;;4979393;28;20217;-60
2021/10/04 10:28:28;;;;;;;6.72;1.10;;;15.20;85.50;;;;;;4975998;28;20077;-60
2021/10/04 10:30:56;;;;;;;3.08;1.15;;;15.30;83.10;;;;;;4979507;28;20141;-61
2021/10/04 10:33:49;;;;;;;6.35;1.13;;;15.30;83.50;;;;;;4981306;28;20054;-61
2021/10/04 10:36:17;;;;;;;5.68;1.30;;;15.40;82.20;;;;;;4981026;28;20528;-61
2021/10/04 10:39:04;;;;;;;6.18;1.35;;;15.50;84.30;;;;;;4980277;28;20208;-61
2021/10/04 10:41:31;;;;;;;4.45;1.13;;;15.50;82.60;;;;;;4976725;28;20178;-61
2021/10/04 10:44:09;;;;;;;5.90;1.52;;;15.40;83.70;;;;;;4975746;28;20100;-61
2021/10/04 10:46:43;;;;;;;4.10;1.00;;;15.50;83.90;;;;;;4980004;28;20054;-61
2021/10/04 10:49:10;;;;;;;6.30;1.17;;;15.40;83.80;;;;;;4978177;28;20050;-60
2021/10/04 10:51:36;;;;;;;4.78;1.30;;;15.40;84.20;;;;;;4971045;28;20154;-61
2021/10/04 10:54:38;;;;;;;5.72;1.10;;;15.50;83.80;;;;;;4976677;28;20133;-60
2021/10/04 10:57:05;;;;;;;7.20;1.20;;;15.50;81.40;;;;;;4982503;28;20410;-60
2021/10/04 10:59:31;;;;;;;6.63;1.38;;;15.50;82.30;;;;;;4980743;28;20137;-61
2021/10/04 11:01:58;;;;;;;6.93;1.20;;;15.60;83.10;;;;;;4980095;28;20498;-61
2021/10/04 11:04:39;;;;;;;7.18;1.73;;;15.70;83.20;;;;;;4980428;28;20448;-59
2021/10/04 11:07:06;;;;;;;3.85;1.20;;;15.80;81.30;;;;;;4977770;28;20082;-60
2021/10/04 11:10:06;;;;;;;7.13;1.42;;;16.00;81.80;;;;;;4977616;28;20085;-61
2021/10/04 11:13:23;;;;;;;7.88;1.08;;;16.20;79.70;;;;;;4973022;28;20130;-60
2021/10/04 11:15:52;;;;;;;5.07;1.20;;;16.50;78.60;;;;;;4974846;28;20242;-61
2021/10/04 11:18:19;;;;;;;5.57;1.48;;;16.70;77.80;;;;;;4968704;28;20054;-58
2021/10/04 11:20:46;;;;;;;4.90;1.45;;;16.90;77.10;;;;;;4972929;28;20134;-57
2021/10/04 11:23:15;;;;;;;5.45;1.40;;;17.10;76.80;;;;;;4972980;28;20093;-58
2021/10/04 11:25:46;;;;;;;5.03;1.60;;;17.40;77.10;;;;;;4975614;28;20136;-57
2021/10/04 11:28:14;;;;;;;3.88;1.25;;;17.60;76.50;;;;;;4973972;28;20865;-60
2021/10/04 11:31:08;;;;;;;3.65;1.30;;;17.80;75.20;;;;;;4979520;28;20082;-60
2021/10/04 11:33:39;;;;;;;5.25;1.38;;;17.60;72.60;;;;;;4973886;28;20046;-60
2021/10/04 11:36:07;;;;;;;6.72;1.65;;;17.50;74.60;;;;;;4977055;28;20054;-60
2021/10/04 11:38:44;;;;;;;5.95;1.17;;;17.60;76.10;;;;;;5007751;28;20078;-60
2021/10/04 11:41:11;;;;;;;3.28;1.25;;;17.60;74.50;;;;;;4970272;28;20051;-60
2021/10/04 11:43:44;;;;;;;5.38;1.20;;;17.80;75.80;;;;;;4973189;28;20232;-60
2021/10/04 11:46:14;;;;;;;;;;;17.80;69.30;;;;;;4974769;28;20291;-60
2021/10/04 11:48:42;;;;;;;6.82;1.15;;;17.70;70.00;;;;;;4973372;28;19951;-58
2021/10/04 11:51:11;;;;;;;9.05;1.88;;;17.70;70.50;;;;;;4980470;28;20129;-58
2021/10/04 11:53:39;;;;;;;2.63;1.20;;;17.60;73.00;;;;;;4977821;28;20492;-59
2021/10/04 11:56:08;;;;;;;6.70;1.75;;;17.60;69.40;;;;;;4978604;28;20457;-58
2021/10/04 11:58:35;;;;;;;3.20;1.52;;;17.80;73.30;;;;;;4971464;28;20054;-58
2021/10/04 12:01:02;;;;;;;6.57;1.25;;;18.10;71.10;;;;;;4973680;28;20081;-57
2021/10/04 12:03:30;;;;;;;4.43;1.00;;;18.30;70.30;;;;;;4976020;28;20085;-57
2021/10/04 12:05:58;;;;;;;4.22;1.10;;;18.30;67.50;;;;;;4975259;28;20148;-58
2021/10/04 12:08:25;;;;;;;2.15;0.93;;;18.50;69.30;;;;;;4967052;28;20101;-57
2021/10/04 12:10:56;;;;;;;3.55;1.27;;;18.70;71.30;;;;;;4966805;28;20149;-58
2021/10/04 12:13:28;;;;;;;7.10;1.70;;;18.80;67.80;;;;;;4977659;28;20671;-57
2021/10/04 12:16:03;;;;;;;9.07;1.70;;;18.80;66.70;;;;;;4976486;28;20141;-58
2021/10/04 12:18:31;;;;;;;4.43;1.60;;;19.00;65.90;;;;;;4978677;28;20089;-57
2021/10/04 12:21:31;;;;;;;6.80;1.80;;;19.10;66.40;;;;;;4980868;28;20137;-58
2021/10/04 12:24:19;;;;;;;5.05;1.20;;;19.00;65.20;;;;;;4980103;28;20620;-57
2021/10/04 12:26:52;;;;;;;7.15;1.92;;;19.10;67.40;;;;;;4979614;28;20138;-58
2021/10/04 12:29:41;;;;;;;6.38;1.85;;;19.50;67.50;;;;;;4979620;28;20496;-58
2021/10/04 12:32:21;;;;;;;3.17;1.83;;;19.60;64.60;;;;;;4978966;28;20125;-57
2021/10/04 12:34:58;;;;;;;2.88;1.17;;;19.20;65.70;;;;;;4980202;28;20194;-58
2021/10/04 12:37:25;;;;;;;5.57;1.35;;;19.20;65.70;;;;;;4980907;28;20137;-58
2021/10/04 12:39:52;;;;;;;4.22;1.85;;;19.20;68.60;;;;;;4978150;28;20121;-58
2021/10/04 12:42:22;;;;;;;11.10;2.13;;;19.20;68.30;;;;;;4980916;28;20278;-58
2021/10/04 12:44:48;;;;;;;7.03;1.75;;;19.20;69.50;;;;;;4978975;28;20536;-58
2021/10/04 12:47:15;;;;;;;6.97;1.60;;;19.30;68.50;;;;;;4978508;28;20644;-57
2021/10/04 12:49:56;;;;;;;5.13;1.45;;;19.40;67.90;;;;;;4980685;28;20078;-58
2021/10/04 12:52:31;;;;;;;3.25;1.15;;;19.90;64.40;;;;;;4979478;28;20316;-58